Albion, Nebraska
Current Conditions -  °F | °C
As of 4:15 PM on Tuesday 21 Oct 2014 (Local Time) from KBVN Reporting Station
Clear Clear  
Wind Chill: 76°   Ceiling: Unl
Heat Index: 77°   Visibility: 10mi
Dew Point: 36°   Wind: 18mph
Humidity: 23%   Direction: 160°SSE
Pressure: 29.98"   Gusts: 23mph
Location:  41.69°N, 98°W
Report Text: KBVN 212115Z AUTO 16016G20KT 10SM CLR 25/02 A2998 RMK AO2 T02450020
Loading
Personal Weather Stations






























Interactive Weather Map
Tropical Storm Tracking
New forecast layout! Learn more

10-Day Weather Forecast

Advertisements
Track Severe Weather on mobile